createdAt,value
2018-04-01T00:02:32.205Z,5.50
2018-04-01T00:05:34.301Z,5.40
2018-04-01T00:08:36.413Z,6.33
2018-04-01T00:11:38.522Z,7.03
2018-04-01T00:14:40.661Z,7.03
2018-04-01T00:17:42.756Z,5.33
2018-04-01T00:20:44.873Z,6.43
2018-04-01T00:23:47.026Z,5.47
2018-04-01T00:26:49.117Z,5.80
2018-04-01T00:29:51.251Z,6.57
2018-04-01T00:32:53.532Z,5.47
2018-04-01T00:35:55.634Z,6.27
2018-04-01T00:38:58.766Z,5.30
2018-04-01T00:42:01.910Z,4.73
2018-04-01T00:45:04.094Z,4.90
2018-04-01T00:48:06.181Z,4.63
2018-04-01T00:51:08.295Z,3.90
2018-04-01T00:54:10.513Z,7.73
2018-04-01T00:57:12.618Z,4.73
2018-04-01T01:00:14.771Z,4.93
2018-04-01T01:03:17.337Z,7.73
2018-04-01T01:06:19.459Z,5.60
2018-04-01T01:09:21.609Z,6.80
2018-04-01T01:12:23.748Z,7.77
2018-04-01T01:15:25.855Z,4.27
2018-04-01T01:18:27.954Z,5.67
2018-04-01T01:21:30.061Z,5.03
2018-04-01T01:24:32.201Z,5.30
2018-04-01T01:27:34.317Z,4.87
2018-04-01T01:30:36.446Z,5.47
2018-04-01T01:33:38.567Z,5.13
2018-04-01T01:36:40.817Z,4.03
2018-04-01T01:39:42.970Z,6.37
2018-04-01T01:42:45.453Z,5.90
2018-04-01T01:45:47.575Z,4.67
2018-04-01T01:48:49.685Z,4.63
2018-04-01T01:51:51.957Z,8.23
2018-04-01T01:54:54.454Z,6.13
2018-04-01T01:57:56.566Z,5.33
2018-04-01T02:00:58.683Z,4.97
2018-04-01T02:04:00.853Z,4.10
2018-04-01T02:07:02.949Z,3.87
2018-04-01T02:10:05.059Z,4.47
2018-04-01T02:13:07.162Z,3.77
2018-04-01T02:16:09.300Z,2.60
2018-04-01T02:19:11.418Z,2.40
2018-04-01T02:22:13.520Z,2.77
2018-04-01T02:25:15.647Z,2.00
2018-04-01T02:28:17.762Z,2.33
2018-04-01T02:31:19.907Z,2.67
2018-04-01T02:34:22.002Z,1.97
2018-04-01T02:37:24.176Z,2.50
2018-04-01T02:40:26.297Z,2.13
2018-04-01T02:43:28.407Z,3.33
2018-04-01T02:46:30.507Z,2.50
2018-04-01T02:49:32.626Z,3.00
2018-04-01T02:52:34.722Z,3.10
2018-04-01T02:55:36.918Z,2.80
2018-04-01T02:58:39.024Z,3.10
2018-04-01T03:01:41.131Z,2.40
2018-04-01T03:04:43.257Z,4.27
2018-04-01T03:07:45.370Z,2.20
2018-04-01T03:10:47.483Z,2.10
2018-04-01T03:13:49.678Z,3.10
2018-04-01T03:16:51.846Z,1.97
2018-04-01T03:19:53.953Z,1.87
2018-04-01T03:22:56.093Z,3.67
2018-04-01T03:25:58.215Z,2.37
2018-04-01T03:29:00.309Z,1.63
2018-04-01T03:32:02.413Z,2.03
2018-04-01T03:35:04.542Z,3.20
2018-04-01T03:38:06.677Z,3.40
2018-04-01T03:41:08.813Z,2.47
2018-04-01T03:44:10.903Z,3.00
2018-04-01T03:47:13.034Z,3.37
2018-04-01T03:50:15.143Z,2.93
2018-04-01T03:53:17.253Z,3.27
2018-04-01T03:56:19.371Z,3.47
2018-04-01T03:59:21.490Z,4.23
2018-04-01T04:02:23.584Z,4.13
2018-04-01T04:05:25.701Z,3.90
2018-04-01T04:08:27.832Z,4.33
2018-04-01T04:11:29.929Z,4.13
2018-04-01T04:14:32.054Z,4.20
2018-04-01T04:17:34.292Z,4.17
2018-04-01T04:20:36.372Z,4.20
2018-04-01T04:23:38.518Z,3.90
2018-04-01T04:26:40.602Z,4.20
2018-04-01T04:29:42.734Z,3.97
2018-04-01T04:32:44.840Z,4.00
2018-04-01T04:35:46.961Z,3.97
2018-04-01T04:38:49.128Z,4.27
2018-04-01T04:41:51.290Z,3.00
2018-04-01T04:44:53.377Z,3.70
2018-04-01T04:47:55.543Z,3.97
2018-04-01T04:50:57.647Z,4.57
2018-04-01T04:53:59.793Z,4.63
2018-04-01T04:57:01.893Z,9.30
2018-04-01T05:00:04.004Z,5.60
2018-04-01T05:03:06.110Z,7.03
2018-04-01T05:06:08.232Z,6.60
2018-04-01T05:09:10.348Z,7.90
2018-04-01T05:12:12.514Z,7.67
2018-04-01T05:15:14.646Z,8.67
2018-04-01T05:18:16.877Z,9.17
2018-04-01T05:21:18.998Z,10.60
2018-04-01T05:24:21.174Z,10.53
2018-04-01T05:27:23.418Z,9.63
2018-04-01T05:30:25.558Z,9.40
2018-04-01T05:33:27.691Z,9.77
2018-04-01T05:36:29.780Z,9.23
2018-04-01T05:39:31.885Z,8.83
2018-04-01T05:42:34.009Z,10.20
2018-04-01T05:45:36.447Z,9.10
2018-04-01T05:48:38.633Z,8.97
2018-04-01T05:51:40.776Z,9.70
2018-04-01T05:54:42.901Z,10.40
2018-04-01T05:57:45.013Z,9.10
2018-04-01T06:00:47.112Z,8.83
2018-04-01T06:03:49.227Z,10.53
2018-04-01T06:06:51.385Z,10.20
2018-04-01T06:09:53.453Z,10.83
2018-04-01T06:12:55.596Z,9.37
2018-04-01T06:15:57.751Z,8.83
2018-04-01T06:18:59.896Z,8.23
2018-04-01T06:22:02.030Z,10.20
2018-04-01T06:25:04.154Z,10.80
2018-04-01T06:28:06.261Z,9.60
2018-04-01T06:31:08.380Z,10.53
2018-04-01T06:34:10.495Z,8.70
2018-04-01T06:37:12.648Z,8.83
2018-04-01T06:40:14.763Z,9.43
2018-04-01T06:43:16.862Z,8.90
2018-04-01T06:46:18.977Z,10.40
2018-04-01T06:49:21.124Z,8.53
2018-04-01T06:52:23.210Z,8.03
2018-04-01T06:55:25.320Z,8.73
2018-04-01T06:58:27.631Z,7.83
2018-04-01T07:01:30.076Z,8.67
2018-04-01T07:04:32.193Z,8.10
2018-04-01T07:07:34.715Z,9.30
2018-04-01T07:10:37.775Z,8.80
2018-04-01T07:13:39.860Z,8.60
2018-04-01T07:16:41.976Z,9.53
2018-04-01T07:19:44.082Z,9.83
2018-04-01T07:22:46.263Z,10.00
2018-04-01T07:25:48.366Z,9.10
2018-04-01T07:28:50.541Z,8.40
2018-04-01T07:31:52.695Z,7.60
2018-04-01T07:34:54.823Z,9.07
2018-04-01T07:37:56.946Z,8.33
2018-04-01T07:40:59.066Z,8.63
2018-04-01T07:44:01.188Z,9.60
2018-04-01T07:47:03.297Z,9.13
2018-04-01T07:50:05.413Z,9.63
2018-04-01T07:53:07.641Z,9.30
2018-04-01T07:56:09.740Z,8.37
2018-04-01T07:59:11.852Z,9.20
2018-04-01T08:02:13.992Z,9.63
2018-04-01T08:05:16.182Z,8.40
2018-04-01T08:08:18.293Z,8.70
2018-04-01T08:11:20.394Z,8.83
2018-04-01T08:14:22.566Z,10.37
2018-04-01T08:17:24.697Z,9.03
2018-04-01T08:20:26.805Z,9.23
2018-04-01T08:23:28.916Z,8.20
2018-04-01T08:26:31.134Z,9.50
2018-04-01T08:29:33.235Z,9.23
2018-04-01T08:32:35.348Z,11.67
2018-04-01T08:35:37.461Z,8.73
2018-04-01T08:38:39.556Z,9.33
2018-04-01T08:41:41.669Z,8.30
2018-04-01T08:44:43.911Z,8.87
2018-04-01T08:47:46.005Z,8.53
2018-04-01T08:50:48.114Z,8.27
2018-04-01T08:53:50.215Z,7.47
2018-04-01T08:56:52.325Z,8.67
2018-04-01T08:59:54.444Z,8.97
2018-04-01T09:02:56.610Z,9.67
2018-04-01T09:05:59.005Z,8.43
2018-04-01T09:09:01.120Z,10.53
2018-04-01T09:12:03.388Z,10.40
2018-04-01T09:15:05.654Z,8.70
2018-04-01T09:18:07.860Z,8.40
2018-04-01T09:21:09.954Z,9.17
2018-04-01T09:24:12.078Z,7.80
2018-04-01T09:27:14.231Z,7.30
2018-04-01T09:30:16.506Z,7.73
2018-04-01T09:33:18.674Z,8.17
2018-04-01T09:36:20.843Z,6.37
2018-04-01T09:39:22.951Z,6.30
2018-04-01T09:42:25.094Z,6.90
2018-04-01T09:45:27.199Z,5.87
2018-04-01T09:48:29.325Z,6.73
2018-04-01T09:51:31.455Z,6.83
2018-04-01T09:54:33.572Z,7.17
2018-04-01T09:57:35.736Z,7.17
2018-04-01T10:00:41.406Z,6.80
2018-04-01T10:03:44.551Z,6.50
2018-04-01T10:06:47.880Z,6.30
2018-04-01T10:09:52.435Z,8.55
2018-04-01T10:12:55.656Z,6.20
2018-04-01T10:15:58.874Z,6.40
2018-04-01T10:19:02.369Z,6.30
2018-04-01T10:22:06.363Z,5.20
2018-04-01T10:25:09.661Z,5.30
2018-04-01T10:28:12.944Z,6.70
2018-04-01T10:31:16.291Z,4.47
2018-04-01T10:34:19.545Z,4.20
2018-04-01T10:37:23.160Z,4.13
2018-04-01T10:40:26.744Z,4.37
2018-04-01T10:43:30.076Z,4.83
2018-04-01T10:46:33.353Z,4.67
2018-04-01T10:49:36.560Z,5.07
2018-04-01T10:52:39.849Z,5.27
2018-04-01T10:55:41.967Z,5.47
2018-04-01T10:58:44.056Z,4.77
2018-04-01T11:01:46.176Z,6.13
2018-04-01T11:04:48.290Z,6.37
2018-04-01T11:07:50.423Z,6.60
2018-04-01T11:10:52.572Z,6.53
2018-04-01T11:13:54.728Z,7.00
2018-04-01T11:16:56.960Z,6.97
2018-04-01T11:19:59.059Z,6.70
2018-04-01T11:23:01.173Z,7.87
2018-04-01T11:26:03.313Z,6.83
2018-04-01T11:29:05.421Z,7.13
2018-04-01T11:32:07.554Z,7.07
2018-04-01T11:35:09.687Z,7.17
2018-04-01T11:38:11.794Z,8.00
2018-04-01T11:41:13.957Z,7.23
2018-04-01T11:44:16.070Z,6.77
2018-04-01T11:47:18.198Z,7.23
2018-04-01T11:50:20.314Z,8.33
2018-04-01T11:53:22.463Z,6.50
2018-04-01T11:56:24.612Z,7.23
2018-04-01T11:59:26.740Z,7.67
2018-04-01T12:02:28.858Z,8.07
2018-04-01T12:05:30.961Z,8.77
2018-04-01T12:08:33.109Z,9.30
2018-04-01T12:11:35.206Z,11.53
2018-04-01T12:14:37.334Z,9.10
2018-04-01T12:17:39.442Z,7.33
2018-04-01T12:20:41.583Z,6.40
2018-04-01T12:23:43.734Z,6.43
2018-04-01T12:26:45.862Z,6.47
2018-04-01T12:29:47.994Z,5.57
2018-04-01T12:32:50.106Z,7.43
2018-04-01T12:35:52.334Z,5.43
2018-04-01T12:38:54.499Z,5.60
2018-04-01T12:41:56.619Z,6.00
2018-04-01T12:44:58.766Z,6.60
2018-04-01T12:48:00.901Z,8.10
2018-04-01T12:51:03.031Z,6.10
2018-04-01T12:54:05.140Z,7.33
2018-04-01T12:57:07.247Z,7.90
2018-04-01T13:00:09.396Z,7.57
2018-04-01T13:03:11.599Z,8.97
2018-04-01T13:06:13.735Z,8.87
2018-04-01T13:09:15.855Z,6.87
2018-04-01T13:12:18.053Z,9.67
2018-04-01T13:15:20.166Z,6.37
2018-04-01T13:18:22.371Z,6.30
2018-04-01T13:21:24.513Z,8.40
2018-04-01T13:24:26.709Z,7.10
2018-04-01T13:27:28.838Z,7.17
2018-04-01T13:30:30.978Z,6.20
2018-04-01T13:33:33.131Z,7.10
2018-04-01T13:36:35.300Z,8.67
2018-04-01T13:39:37.433Z,6.87
2018-04-01T13:42:39.627Z,7.63
2018-04-01T13:45:41.783Z,7.37
2018-04-01T13:48:43.922Z,8.83
2018-04-01T13:51:46.034Z,7.70
2018-04-01T13:54:48.182Z,7.40
2018-04-01T13:57:50.310Z,8.93
2018-04-01T14:00:52.482Z,7.20
2018-04-01T14:03:54.672Z,6.57
2018-04-01T14:06:56.802Z,6.33
2018-04-01T14:09:58.998Z,6.33
2018-04-01T14:13:01.197Z,6.87
2018-04-01T14:16:03.369Z,7.77
2018-04-01T14:19:05.480Z,6.13
2018-04-01T14:22:07.604Z,5.40
2018-04-01T14:25:09.731Z,4.43
2018-04-01T14:28:11.891Z,5.93
2018-04-01T14:31:14.060Z,6.00
2018-04-01T14:34:16.225Z,7.93
2018-04-01T14:37:18.451Z,7.03
2018-04-01T14:40:20.591Z,8.40
2018-04-01T14:43:22.771Z,7.23
2018-04-01T14:46:24.857Z,7.80
2018-04-01T14:49:26.977Z,8.63
2018-04-01T14:52:29.110Z,8.63
2018-04-01T14:55:31.254Z,8.17
2018-04-01T14:58:33.374Z,8.03
2018-04-01T15:01:35.495Z,8.87
2018-04-01T15:04:37.579Z,8.87
2018-04-01T15:07:39.720Z,7.97
2018-04-01T15:10:41.943Z,8.17
2018-04-01T15:13:44.106Z,7.53
2018-04-01T15:16:46.210Z,8.20
2018-04-01T15:19:48.309Z,9.00
2018-04-01T15:22:50.429Z,7.60
2018-04-01T15:25:52.537Z,8.07
2018-04-01T15:28:54.661Z,6.80
2018-04-01T15:31:56.746Z,8.03
2018-04-01T15:34:58.950Z,6.00
2018-04-01T15:38:01.097Z,5.20
2018-04-01T15:41:03.226Z,4.80
2018-04-01T15:44:05.359Z,6.50
2018-04-01T15:47:07.498Z,5.50
2018-04-01T15:50:09.622Z,5.23
2018-04-01T15:53:11.798Z,5.03
2018-04-01T15:56:14.135Z,7.40
2018-04-01T15:59:16.345Z,5.03
2018-04-01T16:02:18.512Z,4.90
2018-04-01T16:05:20.737Z,5.60
2018-04-01T16:08:23.225Z,5.40
2018-04-01T16:11:25.327Z,4.37
2018-04-01T16:14:27.425Z,4.23
2018-04-01T16:17:29.539Z,4.27
2018-04-01T16:20:31.658Z,4.90
2018-04-01T16:23:33.766Z,4.10
2018-04-01T16:26:35.886Z,3.30
2018-04-01T16:29:37.993Z,3.70
2018-04-01T16:32:40.149Z,4.10
2018-04-01T16:35:42.244Z,5.30
2018-04-01T16:38:44.493Z,3.33
2018-04-01T16:41:46.606Z,3.90
2018-04-01T16:44:48.852Z,3.07
2018-04-01T16:47:50.942Z,3.83
2018-04-01T16:50:53.196Z,3.10
2018-04-01T16:53:55.290Z,2.63
2018-04-01T16:56:57.429Z,2.40
2018-04-01T16:59:59.542Z,2.80
2018-04-01T17:03:01.672Z,5.50
2018-04-01T17:06:03.775Z,5.10
2018-04-01T17:09:05.895Z,4.53
2018-04-01T17:12:07.998Z,4.57
2018-04-01T17:15:10.159Z,4.00
2018-04-01T17:18:12.269Z,3.77
2018-04-01T17:21:14.381Z,3.37
2018-04-01T17:24:16.502Z,3.43
2018-04-01T17:27:18.659Z,4.13
2018-04-01T17:30:20.785Z,7.00
2018-04-01T17:33:22.895Z,4.27
2018-04-01T17:36:24.994Z,4.73
2018-04-01T17:39:27.095Z,4.50
2018-04-01T17:42:29.199Z,4.90
2018-04-01T17:45:31.305Z,6.13
2018-04-01T17:48:33.416Z,6.50
2018-04-01T17:51:35.590Z,5.30
2018-04-01T17:54:37.725Z,7.10
2018-04-01T17:57:39.837Z,4.83
2018-04-01T18:00:41.943Z,7.67
2018-04-01T18:03:44.071Z,6.60
2018-04-01T18:06:46.149Z,5.80
2018-04-01T18:09:48.308Z,6.27
2018-04-01T18:12:50.410Z,6.80
2018-04-01T18:15:52.697Z,6.93
2018-04-01T18:18:54.796Z,8.53
2018-04-01T18:21:56.921Z,6.13
2018-04-01T18:24:59.009Z,7.10
2018-04-01T18:28:01.160Z,7.93
2018-04-01T18:31:03.281Z,10.53
2018-04-01T18:34:05.404Z,7.50
2018-04-01T18:37:07.539Z,6.57
2018-04-01T18:40:09.650Z,7.00
2018-04-01T18:43:11.759Z,6.00
2018-04-01T18:46:13.943Z,5.27
2018-04-01T18:49:16.071Z,5.70
2018-04-01T18:52:19.247Z,4.37
2018-04-01T18:55:21.361Z,5.93
2018-04-01T18:58:23.491Z,6.17
2018-04-01T19:01:25.643Z,5.70
2018-04-01T19:04:27.850Z,5.03
2018-04-01T19:07:30.002Z,5.50
2018-04-01T19:10:32.154Z,6.33
2018-04-01T19:13:34.273Z,5.73
2018-04-01T19:16:45.319Z,6.77
2018-04-01T19:19:48.654Z,5.77
2018-04-01T19:22:51.922Z,6.33
2018-04-01T19:25:55.205Z,5.83
2018-04-01T19:28:58.530Z,6.10
2018-04-01T19:32:01.741Z,6.40
2018-04-01T19:35:05.114Z,6.77
2018-04-01T19:38:08.429Z,6.80
2018-04-01T19:41:11.694Z,7.53
2018-04-01T19:44:14.992Z,7.30
2018-04-01T19:47:18.322Z,7.07
2018-04-01T19:50:21.682Z,8.30
2018-04-01T19:53:24.946Z,9.33
2018-04-01T19:56:28.178Z,8.03
2018-04-01T19:59:31.490Z,10.00
2018-04-01T20:02:34.869Z,9.00
2018-04-01T20:05:38.029Z,9.80
2018-04-01T20:08:41.322Z,9.10
2018-04-01T20:11:44.620Z,9.17
2018-04-01T20:14:47.911Z,10.43
2018-04-01T20:17:51.182Z,9.53
2018-04-01T20:20:54.448Z,9.37
2018-04-01T20:23:57.848Z,8.77
2018-04-01T20:27:01.058Z,11.20
2018-04-01T20:30:04.676Z,11.50
2018-04-01T20:33:08.139Z,10.37
2018-04-01T20:36:11.644Z,10.40
2018-04-01T20:39:15.152Z,10.93
2018-04-01T20:42:18.431Z,12.57
2018-04-01T20:45:22.408Z,13.03
2018-04-01T20:48:26.322Z,12.67
2018-04-01T20:51:29.876Z,11.07
2018-04-01T20:54:33.386Z,13.20
2018-04-01T20:57:36.889Z,12.03
2018-04-01T21:00:40.498Z,14.03
2018-04-01T21:03:44.106Z,14.47
2018-04-01T21:06:47.398Z,14.73
2018-04-01T21:09:50.727Z,12.20
2018-04-01T21:12:54.247Z,12.10
2018-04-01T21:15:57.525Z,12.80
2018-04-01T21:19:00.810Z,13.10
2018-04-01T21:22:04.089Z,15.43
2018-04-01T21:25:07.502Z,15.13
2018-04-01T21:28:10.741Z,13.00
2018-04-01T21:31:13.922Z,15.40
2018-04-01T21:34:17.189Z,14.17
2018-04-01T21:37:20.430Z,12.63
2018-04-01T21:40:23.704Z,13.10
2018-04-01T21:43:26.923Z,13.03
2018-04-01T21:46:30.184Z,13.83
2018-04-01T21:49:33.491Z,12.77
2018-04-01T21:52:36.781Z,12.50
2018-04-01T21:55:40.064Z,13.13
2018-04-01T21:58:43.785Z,14.00
2018-04-01T22:01:47.046Z,14.13
2018-04-01T22:04:50.236Z,14.10
2018-04-01T22:07:53.681Z,13.53
2018-04-01T22:10:56.958Z,15.07
2018-04-01T22:14:00.306Z,13.07
2018-04-01T22:17:03.479Z,14.37
2018-04-01T22:20:07.003Z,14.10
2018-04-01T22:23:13.184Z,13.40
2018-04-01T22:26:16.467Z,15.87
2018-04-01T22:29:19.633Z,15.30
2018-04-01T22:32:23.064Z,15.77
2018-04-01T22:35:26.254Z,15.93
2018-04-01T22:38:29.624Z,14.30
2018-04-01T22:41:32.839Z,14.37
2018-04-01T22:44:36.127Z,15.33
2018-04-01T22:47:39.365Z,14.53
2018-04-01T22:50:42.638Z,15.50
2018-04-01T22:53:45.904Z,14.73
2018-04-01T22:56:49.194Z,17.17
2018-04-01T22:59:52.496Z,15.00
2018-04-01T23:02:55.708Z,15.13
2018-04-01T23:06:05.451Z,15.60
2018-04-01T23:09:10.318Z,15.43
2018-04-01T23:12:13.652Z,15.80
2018-04-01T23:15:16.976Z,17.47
2018-04-01T23:18:23.916Z,15.30
2018-04-01T23:21:30.285Z,17.17
2018-04-01T23:24:39.899Z,15.77
2018-04-01T23:27:59.349Z,16.43
2018-04-01T23:31:03.591Z,15.37
2018-04-01T23:34:16.705Z,17.30
2018-04-01T23:37:20.378Z,15.47
2018-04-01T23:40:29.523Z,16.53
2018-04-01T23:43:32.830Z,16.30
2018-04-01T23:46:36.118Z,19.53
2018-04-01T23:49:39.344Z,15.07
2018-04-01T23:52:46.308Z,17.70
2018-04-01T23:55:49.508Z,15.97
2018-04-01T23:58:58.616Z,16.20
